sensor_id;sensor_type;location;lat;lon;timestamp;pressure;altitude;pressure_sealevel;temperature;humidity
75008;BME280;63554;48.940;12.050;2023-12-22T00:00:41;95677.53;;;3.62;87.31
75008;BME280;63554;48.940;12.050;2023-12-22T00:04:45;95693.69;;;3.49;87.51
75008;BME280;63554;48.940;12.050;2023-12-22T00:08:48;95703.16;;;3.45;87.63
75008;BME280;63554;48.940;12.050;2023-12-22T00:12:50;95686.28;;;3.51;86.07
75008;BME280;63554;48.940;12.050;2023-12-22T00:16:53;95671.88;;;3.52;85.26
75008;BME280;63554;48.940;12.050;2023-12-22T00:20:57;95733.19;;;3.47;86.78
75008;BME280;63554;48.940;12.050;2023-12-22T00:25:00;95743.00;;;3.60;81.48
75008;BME280;63554;48.940;12.050;2023-12-22T00:29:03;95750.03;;;3.54;82.21
75008;BME280;63554;48.940;12.050;2023-12-22T00:33:06;95752.78;;;3.41;84.81
75008;BME280;63554;48.940;12.050;2023-12-22T00:37:10;95743.84;;;3.22;86.42
75008;BME280;63554;48.940;12.050;2023-12-22T00:41:14;95741.63;;;3.12;87.04
75008;BME280;63554;48.940;12.050;2023-12-22T00:45:16;95741.63;;;3.05;87.22
75008;BME280;63554;48.940;12.050;2023-12-22T00:49:19;95752.16;;;3.00;88.89
75008;BME280;63554;48.940;12.050;2023-12-22T00:53:25;95742.69;;;2.97;90.48
75008;BME280;63554;48.940;12.050;2023-12-22T00:57:27;95752.22;;;2.87;92.42
75008;BME280;63554;48.940;12.050;2023-12-22T01:01:31;95732.69;;;2.80;91.97
75008;BME280;63554;48.940;12.050;2023-12-22T01:05:34;95724.50;;;2.74;93.17
75008;BME280;63554;48.940;12.050;2023-12-22T01:09:38;95729.22;;;2.72;93.99
75008;BME280;63554;48.940;12.050;2023-12-22T01:13:41;95716.31;;;2.69;94.02
75008;BME280;63554;48.940;12.050;2023-12-22T01:17:43;95713.84;;;2.68;94.81
75008;BME280;63554;48.940;12.050;2023-12-22T01:21:47;95724.56;;;2.61;95.22
75008;BME280;63554;48.940;12.050;2023-12-22T01:25:54;95751.06;;;2.63;94.75
75008;BME280;63554;48.940;12.050;2023-12-22T01:29:57;95778.78;;;2.62;95.95
75008;BME280;63554;48.940;12.050;2023-12-22T01:34:00;95750.03;;;2.57;95.77
75008;BME280;63554;48.940;12.050;2023-12-22T01:38:03;95780.44;;;2.56;95.67
75008;BME280;63554;48.940;12.050;2023-12-22T01:42:07;95758.66;;;2.52;96.44
75008;BME280;63554;48.940;12.050;2023-12-22T01:46:11;95767.69;;;2.45;98.53
75008;BME280;63554;48.940;12.050;2023-12-22T01:50:15;95774.50;;;2.41;98.90
75008;BME280;63554;48.940;12.050;2023-12-22T01:54:18;95764.00;;;2.39;99.90
75008;BME280;63554;48.940;12.050;2023-12-22T01:58:23;95760.34;;;2.33;100.00
75008;BME280;63554;48.940;12.050;2023-12-22T02:02:27;95765.88;;;2.32;100.00
75008;BME280;63554;48.940;12.050;2023-12-22T02:06:30;95773.50;;;2.28;100.00
75008;BME280;63554;48.940;12.050;2023-12-22T02:10:33;95792.38;;;2.33;100.00
75008;BME280;63554;48.940;12.050;2023-12-22T02:14:37;95787.25;;;2.32;100.00
75008;BME280;63554;48.940;12.050;2023-12-22T02:18:43;95801.59;;;2.31;100.00
75008;BME280;63554;48.940;12.050;2023-12-22T02:22:52;95787.63;;;2.29;100.00
75008;BME280;63554;48.940;12.050;2023-12-22T02:26:56;95767.34;;;2.28;100.00
75008;BME280;63554;48.940;12.050;2023-12-22T02:31:05;95754.19;;;2.26;100.00
75008;BME280;63554;48.940;12.050;2023-12-22T02:35:16;95745.97;;;2.21;100.00
75008;BME280;63554;48.940;12.050;2023-12-22T02:39:21;95761.38;;;2.19;100.00
75008;BME280;63554;48.940;12.050;2023-12-22T02:43:23;95741.66;;;2.13;100.00
75008;BME280;63554;48.940;12.050;2023-12-22T02:47:26;95746.59;;;2.16;100.00
75008;BME280;63554;48.940;12.050;2023-12-22T02:51:30;95774.72;;;2.12;100.00
75008;BME280;63554;48.940;12.050;2023-12-22T02:55:35;95771.03;;;2.13;100.00
75008;BME280;63554;48.940;12.050;2023-12-22T02:59:38;95782.72;;;2.12;100.00
75008;BME280;63554;48.940;12.050;2023-12-22T03:03:41;95770.84;;;2.22;100.00
75008;BME280;63554;48.940;12.050;2023-12-22T03:07:44;95767.53;;;2.26;100.00
75008;BME280;63554;48.940;12.050;2023-12-22T03:11:48;95793.59;;;2.31;100.00
75008;BME280;63554;48.940;12.050;2023-12-22T03:15:53;95768.56;;;2.32;100.00
75008;BME280;63554;48.940;12.050;2023-12-22T03:19:56;95780.88;;;2.40;100.00
75008;BME280;63554;48.940;12.050;2023-12-22T03:23:59;95781.06;;;2.38;100.00
75008;BME280;63554;48.940;12.050;2023-12-22T03:28:03;95770.78;;;2.35;100.00
75008;BME280;63554;48.940;12.050;2023-12-22T03:32:06;95764.66;;;2.34;100.00
75008;BME280;63554;48.940;12.050;2023-12-22T03:36:09;95775.94;;;2.36;100.00
75008;BME280;63554;48.940;12.050;2023-12-22T03:40:12;95779.41;;;2.37;100.00
75008;BME280;63554;48.940;12.050;2023-12-22T03:44:16;95789.69;;;2.40;100.00
75008;BME280;63554;48.940;12.050;2023-12-22T03:48:18;95794.63;;;2.30;100.00
75008;BME280;63554;48.940;12.050;2023-12-22T03:52:21;95799.97;;;2.16;100.00
75008;BME280;63554;48.940;12.050;2023-12-22T03:56:24;95821.94;;;1.98;100.00
75008;BME280;63554;48.940;12.050;2023-12-22T04:00:28;95815.56;;;1.86;100.00
75008;BME280;63554;48.940;12.050;2023-12-22T04:04:31;95815.34;;;1.81;100.00
75008;BME280;63554;48.940;12.050;2023-12-22T04:08:33;95829.06;;;1.71;100.00
75008;BME280;63554;48.940;12.050;2023-12-22T04:12:36;95837.88;;;1.65;100.00
75008;BME280;63554;48.940;12.050;2023-12-22T04:16:40;95830.47;;;1.61;100.00
75008;BME280;63554;48.940;12.050;2023-12-22T04:20:43;95836.22;;;1.57;100.00
75008;BME280;63554;48.940;12.050;2023-12-22T04:24:46;95840.88;;;1.49;100.00
75008;BME280;63554;48.940;12.050;2023-12-22T04:28:48;95856.47;;;1.45;100.00
75008;BME280;63554;48.940;12.050;2023-12-22T04:32:52;95841.91;;;1.48;100.00
75008;BME280;63554;48.940;12.050;2023-12-22T04:36:55;95826.94;;;1.47;100.00
75008;BME280;63554;48.940;12.050;2023-12-22T04:40:58;95840.06;;;1.48;100.00
75008;BME280;63554;48.940;12.050;2023-12-22T04:45:01;95824.28;;;1.47;100.00
75008;BME280;63554;48.940;12.050;2023-12-22T04:49:05;95824.69;;;1.44;100.00
75008;BME280;63554;48.940;12.050;2023-12-22T04:53:08;95827.16;;;1.45;100.00
75008;BME280;63554;48.940;12.050;2023-12-22T04:57:11;95835.56;;;1.49;100.00
75008;BME280;63554;48.940;12.050;2023-12-22T05:01:17;95833.72;;;1.49;100.00
75008;BME280;63554;48.940;12.050;2023-12-22T05:05:22;95853.00;;;1.51;100.00
75008;BME280;63554;48.940;12.050;2023-12-22T05:09:25;95853.63;;;1.53;100.00
75008;BME280;63554;48.940;12.050;2023-12-22T05:13:28;95856.91;;;1.55;100.00
75008;BME280;63554;48.940;12.050;2023-12-22T05:17:31;95873.97;;;1.61;100.00
75008;BME280;63554;48.940;12.050;2023-12-22T05:21:36;95864.09;;;1.62;100.00
75008;BME280;63554;48.940;12.050;2023-12-22T05:25:39;95851.59;;;1.55;100.00
75008;BME280;63554;48.940;12.050;2023-12-22T05:29:42;95849.34;;;1.59;100.00
75008;BME280;63554;48.940;12.050;2023-12-22T05:33:44;95856.72;;;1.57;100.00
75008;BME280;63554;48.940;12.050;2023-12-22T05:37:49;95846.31;;;1.82;100.00
75008;BME280;63554;48.940;12.050;2023-12-22T05:41:52;95846.38;;;2.22;100.00
75008;BME280;63554;48.940;12.050;2023-12-22T05:45:54;95852.91;;;2.00;100.00
75008;BME280;63554;48.940;12.050;2023-12-22T05:49:57;95862.16;;;1.97;100.00
75008;BME280;63554;48.940;12.050;2023-12-22T05:54:02;95876.13;;;2.12;100.00
75008;BME280;63554;48.940;12.050;2023-12-22T05:58:05;95859.50;;;2.10;100.00
75008;BME280;63554;48.940;12.050;2023-12-22T06:02:07;95867.69;;;2.09;100.00
75008;BME280;63554;48.940;12.050;2023-12-22T06:06:10;95866.47;;;2.11;100.00
75008;BME280;63554;48.940;12.050;2023-12-22T06:10:15;95867.91;;;2.21;100.00
75008;BME280;63554;48.940;12.050;2023-12-22T06:14:17;95889.88;;;2.16;100.00
75008;BME280;63554;48.940;12.050;2023-12-22T06:18:20;95873.66;;;2.17;100.00
75008;BME280;63554;48.940;12.050;2023-12-22T06:22:23;95872.22;;;2.08;100.00
75008;BME280;63554;48.940;12.050;2023-12-22T06:26:27;95868.50;;;2.03;100.00
75008;BME280;63554;48.940;12.050;2023-12-22T06:30:30;95866.91;;;2.22;100.00
75008;BME280;63554;48.940;12.050;2023-12-22T06:34:32;95855.19;;;2.23;100.00
75008;BME280;63554;48.940;12.050;2023-12-22T06:38:35;95869.16;;;2.18;100.00
75008;BME280;63554;48.940;12.050;2023-12-22T06:42:39;95883.94;;;2.14;100.00
75008;BME280;63554;48.940;12.050;2023-12-22T06:46:42;95891.72;;;2.09;100.00
75008;BME280;63554;48.940;12.050;2023-12-22T06:50:45;95920.06;;;2.16;100.00
75008;BME280;63554;48.940;12.050;2023-12-22T06:54:48;95914.72;;;2.10;100.00
75008;BME280;63554;48.940;12.050;2023-12-22T06:58:53;95911.81;;;1.98;100.00
75008;BME280;63554;48.940;12.050;2023-12-22T07:02:56;95923.28;;;1.92;100.00
75008;BME280;63554;48.940;12.050;2023-12-22T07:06:59;95912.41;;;1.87;100.00
75008;BME280;63554;48.940;12.050;2023-12-22T07:11:02;95907.69;;;1.89;100.00
75008;BME280;63554;48.940;12.050;2023-12-22T07:15:06;95935.59;;;1.93;100.00
75008;BME280;63554;48.940;12.050;2023-12-22T07:19:11;95926.97;;;1.97;100.00
75008;BME280;63554;48.940;12.050;2023-12-22T07:23:15;95938.91;;;2.02;100.00
75008;BME280;63554;48.940;12.050;2023-12-22T07:27:17;95930.31;;;2.06;100.00
75008;BME280;63554;48.940;12.050;2023-12-22T07:31:21;95931.16;;;2.20;100.00
75008;BME280;63554;48.940;12.050;2023-12-22T07:35:24;95941.03;;;2.26;100.00
75008;BME280;63554;48.940;12.050;2023-12-22T07:39:27;95944.91;;;2.37;100.00
75008;BME280;63554;48.940;12.050;2023-12-22T07:43:30;95941.47;;;2.43;100.00
75008;BME280;63554;48.940;12.050;2023-12-22T07:47:36;95948.44;;;2.57;99.66
75008;BME280;63554;48.940;12.050;2023-12-22T07:51:39;95949.69;;;2.62;100.00
75008;BME280;63554;48.940;12.050;2023-12-22T07:55:43;95959.13;;;2.64;100.00
75008;BME280;63554;48.940;12.050;2023-12-22T07:59:46;95974.34;;;2.57;100.00
75008;BME280;63554;48.940;12.050;2023-12-22T08:03:50;95962.63;;;2.58;100.00
75008;BME280;63554;48.940;12.050;2023-12-22T08:07:53;95968.38;;;2.62;100.00
75008;BME280;63554;48.940;12.050;2023-12-22T08:11:56;95977.22;;;2.62;100.00
75008;BME280;63554;48.940;12.050;2023-12-22T08:15:58;95992.41;;;2.62;100.00
75008;BME280;63554;48.940;12.050;2023-12-22T08:20:03;95987.88;;;2.55;100.00
75008;BME280;63554;48.940;12.050;2023-12-22T08:24:17;96004.94;;;2.54;100.00
75008;BME280;63554;48.940;12.050;2023-12-22T08:28:24;96008.84;;;2.65;100.00
75008;BME280;63554;48.940;12.050;2023-12-22T08:32:27;96022.00;;;2.73;100.00
75008;BME280;63554;48.940;12.050;2023-12-22T08:36:31;96034.59;;;2.86;100.00
75008;BME280;63554;48.940;12.050;2023-12-22T08:40:34;96016.28;;;2.96;100.00
75008;BME280;63554;48.940;12.050;2023-12-22T08:44:37;96006.84;;;3.01;100.00
75008;BME280;63554;48.940;12.050;2023-12-22T08:48:40;96032.53;;;3.28;99.62
75008;BME280;63554;48.940;12.050;2023-12-22T08:52:44;96016.03;;;3.45;99.61
75008;BME280;63554;48.940;12.050;2023-12-22T08:56:48;96026.94;;;3.56;97.49
75008;BME280;63554;48.940;12.050;2023-12-22T09:00:51;96021.19;;;3.60;97.58
75008;BME280;63554;48.940;12.050;2023-12-22T09:04:53;96032.66;;;3.73;95.88
75008;BME280;63554;48.940;12.050;2023-12-22T09:08:58;96051.38;;;3.80;95.41
75008;BME280;63554;48.940;12.050;2023-12-22T09:13:00;96043.97;;;3.89;94.63
75008;BME280;63554;48.940;12.050;2023-12-22T09:17:03;96031.78;;;3.93;94.75
75008;BME280;63554;48.940;12.050;2023-12-22T09:21:06;96074.22;;;3.96;94.69
75008;BME280;63554;48.940;12.050;2023-12-22T09:25:10;96065.38;;;3.89;96.33
75008;BME280;63554;48.940;12.050;2023-12-22T09:29:13;96076.28;;;3.81;99.27
75008;BME280;63554;48.940;12.050;2023-12-22T09:33:16;96101.00;;;3.69;100.00
75008;BME280;63554;48.940;12.050;2023-12-22T09:37:19;96069.31;;;3.73;100.00
75008;BME280;63554;48.940;12.050;2023-12-22T09:41:23;96078.38;;;3.79;100.00
75008;BME280;63554;48.940;12.050;2023-12-22T09:45:26;96071.09;;;3.99;96.39
75008;BME280;63554;48.940;12.050;2023-12-22T09:49:29;96054.91;;;4.39;94.80
75008;BME280;63554;48.940;12.050;2023-12-22T09:53:32;96053.59;;;4.48;92.96
75008;BME280;63554;48.940;12.050;2023-12-22T09:57:37;96050.81;;;4.30;93.16
75008;BME280;63554;48.940;12.050;2023-12-22T10:01:42;96049.41;;;4.27;93.26
75008;BME280;63554;48.940;12.050;2023-12-22T10:05:46;96058.22;;;4.34;92.73
75008;BME280;63554;48.940;12.050;2023-12-22T10:09:50;96051.00;;;4.35;94.02
75008;BME280;63554;48.940;12.050;2023-12-22T10:13:55;96025.81;;;4.43;91.69
75008;BME280;63554;48.940;12.050;2023-12-22T10:17:58;96017.81;;;4.36;91.70
75008;BME280;63554;48.940;12.050;2023-12-22T10:22:01;96020.72;;;4.34;92.72
75008;BME280;63554;48.940;12.050;2023-12-22T10:26:05;96011.47;;;4.30;93.91
75008;BME280;63554;48.940;12.050;2023-12-22T10:30:11;96011.97;;;4.14;98.09
75008;BME280;63554;48.940;12.050;2023-12-22T10:34:16;95996.41;;;3.91;100.00
75008;BME280;63554;48.940;12.050;2023-12-22T10:38:19;95991.09;;;3.78;100.00
75008;BME280;63554;48.940;12.050;2023-12-22T10:42:22;95986.97;;;3.68;100.00
75008;BME280;63554;48.940;12.050;2023-12-22T10:46:26;95976.72;;;3.65;100.00
75008;BME280;63554;48.940;12.050;2023-12-22T10:50:29;95972.63;;;3.63;100.00
75008;BME280;63554;48.940;12.050;2023-12-22T10:54:31;95983.31;;;3.56;100.00
75008;BME280;63554;48.940;12.050;2023-12-22T10:58:34;95986.19;;;3.61;100.00
75008;BME280;63554;48.940;12.050;2023-12-22T11:02:41;95986.19;;;3.61;100.00
75008;BME280;63554;48.940;12.050;2023-12-22T11:06:47;95991.97;;;3.65;100.00
75008;BME280;63554;48.940;12.050;2023-12-22T11:10:52;96002.81;;;3.70;100.00
75008;BME280;63554;48.940;12.050;2023-12-22T11:14:59;95958.06;;;3.45;100.00
75008;BME280;63554;48.940;12.050;2023-12-22T11:19:03;95982.72;;;3.41;100.00
75008;BME280;63554;48.940;12.050;2023-12-22T11:23:08;95977.94;;;3.69;100.00
75008;BME280;63554;48.940;12.050;2023-12-22T11:27:12;95966.19;;;3.77;100.00
75008;BME280;63554;48.940;12.050;2023-12-22T11:31:15;95943.69;;;3.91;100.00
75008;BME280;63554;48.940;12.050;2023-12-22T11:35:21;95946.34;;;3.98;100.00
75008;BME280;63554;48.940;12.050;2023-12-22T11:39:33;95932.34;;;3.96;100.00
75008;BME280;63554;48.940;12.050;2023-12-22T11:43:37;95933.56;;;4.00;100.00
75008;BME280;63554;48.940;12.050;2023-12-22T11:47:40;95930.31;;;3.91;100.00
75008;BME280;63554;48.940;12.050;2023-12-22T11:51:45;95924.53;;;3.94;100.00
75008;BME280;63554;48.940;12.050;2023-12-22T11:55:58;95928.28;;;3.87;100.00
75008;BME280;63554;48.940;12.050;2023-12-22T12:00:04;95924.38;;;3.83;100.00
75008;BME280;63554;48.940;12.050;2023-12-22T12:04:09;95921.50;;;3.78;100.00
75008;BME280;63554;48.940;12.050;2023-12-22T12:08:13;95921.13;;;3.74;100.00
75008;BME280;63554;48.940;12.050;2023-12-22T12:12:16;95930.59;;;3.70;100.00
75008;BME280;63554;48.940;12.050;2023-12-22T12:16:20;95941.09;;;3.71;100.00
75008;BME280;63554;48.940;12.050;2023-12-22T12:20:24;95940.06;;;3.72;100.00
75008;BME280;63554;48.940;12.050;2023-12-22T12:24:28;95904.28;;;3.67;100.00
75008;BME280;63554;48.940;12.050;2023-12-22T12:28:32;95913.94;;;3.74;100.00
75008;BME280;63554;48.940;12.050;2023-12-22T12:32:36;95926.00;;;3.90;100.00
75008;BME280;63554;48.940;12.050;2023-12-22T12:36:39;95900.00;;;3.97;100.00
75008;BME280;63554;48.940;12.050;2023-12-22T12:40:45;95888.13;;;3.87;100.00
75008;BME280;63554;48.940;12.050;2023-12-22T12:44:48;95893.03;;;3.96;100.00
75008;BME280;63554;48.940;12.050;2023-12-22T12:49:02;95882.84;;;4.12;100.00
75008;BME280;63554;48.940;12.050;2023-12-22T12:53:06;95852.00;;;4.03;100.00
75008;BME280;63554;48.940;12.050;2023-12-22T12:57:15;95856.03;;;3.87;100.00
75008;BME280;63554;48.940;12.050;2023-12-22T13:01:18;95828.66;;;3.85;100.00
75008;BME280;63554;48.940;12.050;2023-12-22T13:05:30;95810.09;;;3.90;100.00
75008;BME280;63554;48.940;12.050;2023-12-22T13:09:33;95805.19;;;3.87;100.00
75008;BME280;63554;48.940;12.050;2023-12-22T13:13:42;95801.84;;;3.91;100.00
75008;BME280;63554;48.940;12.050;2023-12-22T13:17:46;95800.78;;;3.99;100.00
75008;BME280;63554;48.940;12.050;2023-12-22T13:21:49;95797.00;;;4.07;100.00
75008;BME280;63554;48.940;12.050;2023-12-22T13:25:52;95788.28;;;4.18;100.00
75008;BME280;63554;48.940;12.050;2023-12-22T13:29:56;95785.25;;;4.33;100.00
75008;BME280;63554;48.940;12.050;2023-12-22T13:33:59;95768.56;;;4.38;100.00
75008;BME280;63554;48.940;12.050;2023-12-22T13:38:05;95769.88;;;4.47;100.00
75008;BME280;63554;48.940;12.050;2023-12-22T13:42:14;95768.94;;;4.60;100.00
75008;BME280;63554;48.940;12.050;2023-12-22T13:46:18;95755.13;;;4.63;100.00
75008;BME280;63554;48.940;12.050;2023-12-22T13:50:22;95772.75;;;4.70;100.00
75008;BME280;63554;48.940;12.050;2023-12-22T13:54:32;95759.50;;;4.75;100.00
75008;BME280;63554;48.940;12.050;2023-12-22T13:58:43;95749.09;;;4.86;100.00
75008;BME280;63554;48.940;12.050;2023-12-22T14:02:47;95744.56;;;4.86;100.00
75008;BME280;63554;48.940;12.050;2023-12-22T14:06:51;95741.81;;;4.93;100.00
75008;BME280;63554;48.940;12.050;2023-12-22T14:10:54;95737.34;;;4.87;100.00
75008;BME280;63554;48.940;12.050;2023-12-22T14:14:56;95739.94;;;4.93;100.00
75008;BME280;63554;48.940;12.050;2023-12-22T14:19:00;95749.53;;;5.01;100.00
75008;BME280;63554;48.940;12.050;2023-12-22T14:23:03;95754.75;;;5.14;100.00
75008;BME280;63554;48.940;12.050;2023-12-22T14:27:06;95749.91;;;5.05;100.00
75008;BME280;63554;48.940;12.050;2023-12-22T14:31:09;95743.59;;;4.99;100.00
75008;BME280;63554;48.940;12.050;2023-12-22T14:35:13;95734.28;;;4.83;100.00
75008;BME280;63554;48.940;12.050;2023-12-22T14:39:16;95762.66;;;4.91;100.00
75008;BME280;63554;48.940;12.050;2023-12-22T14:43:19;95766.31;;;4.97;100.00
75008;BME280;63554;48.940;12.050;2023-12-22T14:47:22;95752.53;;;4.93;100.00
75008;BME280;63554;48.940;12.050;2023-12-22T14:51:26;95764.53;;;4.90;100.00
75008;BME280;63554;48.940;12.050;2023-12-22T14:55:29;95768.69;;;4.86;100.00
75008;BME280;63554;48.940;12.050;2023-12-22T14:59:33;95732.19;;;4.85;100.00
75008;BME280;63554;48.940;12.050;2023-12-22T15:03:36;95770.81;;;4.78;100.00
75008;BME280;63554;48.940;12.050;2023-12-22T15:07:40;95778.34;;;4.69;100.00
75008;BME280;63554;48.940;12.050;2023-12-22T15:11:44;95727.13;;;4.59;100.00
75008;BME280;63554;48.940;12.050;2023-12-22T15:15:46;95738.59;;;4.47;100.00
75008;BME280;63554;48.940;12.050;2023-12-22T15:19:51;95765.41;;;4.41;100.00
75008;BME280;63554;48.940;12.050;2023-12-22T15:23:56;95769.78;;;4.35;100.00
75008;BME280;63554;48.940;12.050;2023-12-22T15:27:58;95766.91;;;4.36;100.00
75008;BME280;63554;48.940;12.050;2023-12-22T15:32:01;95767.78;;;4.30;100.00
75008;BME280;63554;48.940;12.050;2023-12-22T15:36:04;95777.69;;;4.30;100.00
75008;BME280;63554;48.940;12.050;2023-12-22T15:40:09;95777.09;;;4.28;100.00
75008;BME280;63554;48.940;12.050;2023-12-22T15:44:12;95780.28;;;4.36;100.00
75008;BME280;63554;48.940;12.050;2023-12-22T15:48:15;95787.81;;;4.46;100.00
75008;BME280;63554;48.940;12.050;2023-12-22T15:52:18;95798.16;;;5.05;100.00
75008;BME280;63554;48.940;12.050;2023-12-22T15:56:22;95791.06;;;5.29;100.00
75008;BME280;63554;48.940;12.050;2023-12-22T16:00:25;95797.34;;;5.41;100.00
75008;BME280;63554;48.940;12.050;2023-12-22T16:04:29;95786.75;;;5.77;100.00
75008;BME280;63554;48.940;12.050;2023-12-22T16:08:32;95786.50;;;5.78;100.00
75008;BME280;63554;48.940;12.050;2023-12-22T16:12:38;95794.47;;;5.54;100.00
75008;BME280;63554;48.940;12.050;2023-12-22T16:16:41;95805.88;;;5.50;100.00
75008;BME280;63554;48.940;12.050;2023-12-22T16:20:44;95803.16;;;5.38;100.00
75008;BME280;63554;48.940;12.050;2023-12-22T16:24:47;95811.63;;;5.35;100.00
75008;BME280;63554;48.940;12.050;2023-12-22T16:28:51;95812.84;;;5.39;100.00
75008;BME280;63554;48.940;12.050;2023-12-22T16:32:54;95816.78;;;5.37;100.00
75008;BME280;63554;48.940;12.050;2023-12-22T16:36:57;95819.09;;;5.33;100.00
75008;BME280;63554;48.940;12.050;2023-12-22T16:41:01;95810.00;;;5.34;100.00
75008;BME280;63554;48.940;12.050;2023-12-22T16:45:07;95823.63;;;5.51;100.00
75008;BME280;63554;48.940;12.050;2023-12-22T16:49:11;95822.63;;;5.64;100.00
75008;BME280;63554;48.940;12.050;2023-12-22T16:53:13;95816.44;;;5.63;100.00
75008;BME280;63554;48.940;12.050;2023-12-22T16:57:16;95805.72;;;5.63;100.00
75008;BME280;63554;48.940;12.050;2023-12-22T17:01:20;95779.25;;;5.67;100.00
75008;BME280;63554;48.940;12.050;2023-12-22T17:05:41;95802.16;;;5.81;100.00
75008;BME280;63554;48.940;12.050;2023-12-22T17:09:45;95793.13;;;5.94;100.00
75008;BME280;63554;48.940;12.050;2023-12-22T17:13:48;95794.81;;;6.07;100.00
75008;BME280;63554;48.940;12.050;2023-12-22T17:17:52;95795.91;;;6.29;100.00
75008;BME280;63554;48.940;12.050;2023-12-22T17:21:55;95794.75;;;6.25;100.00
75008;BME280;63554;48.940;12.050;2023-12-22T17:25:58;95798.00;;;6.16;100.00
75008;BME280;63554;48.940;12.050;2023-12-22T17:30:01;95787.34;;;6.09;100.00
75008;BME280;63554;48.940;12.050;2023-12-22T17:34:05;95778.00;;;6.23;100.00
75008;BME280;63554;48.940;12.050;2023-12-22T17:38:09;95806.13;;;6.63;100.00
75008;BME280;63554;48.940;12.050;2023-12-22T17:42:11;95775.97;;;6.49;100.00
75008;BME280;63554;48.940;12.050;2023-12-22T17:46:14;95761.94;;;6.59;100.00
75008;BME280;63554;48.940;12.050;2023-12-22T17:50:18;95776.78;;;6.73;100.00
75008;BME280;63554;48.940;12.050;2023-12-22T17:54:23;95810.78;;;6.91;100.00
75008;BME280;63554;48.940;12.050;2023-12-22T17:58:26;95787.41;;;6.80;100.00
75008;BME280;63554;48.940;12.050;2023-12-22T18:02:29;95806.34;;;6.73;100.00
75008;BME280;63554;48.940;12.050;2023-12-22T18:06:33;95800.03;;;6.91;100.00
75008;BME280;63554;48.940;12.050;2023-12-22T18:10:36;95778.84;;;6.95;99.73
75008;BME280;63554;48.940;12.050;2023-12-22T18:14:41;95789.25;;;6.91;100.00
75008;BME280;63554;48.940;12.050;2023-12-22T18:18:44;95776.63;;;6.80;100.00
75008;BME280;63554;48.940;12.050;2023-12-22T18:22:49;95761.91;;;6.94;100.00
75008;BME280;63554;48.940;12.050;2023-12-22T18:26:51;95780.38;;;7.02;99.30
75008;BME280;63554;48.940;12.050;2023-12-22T18:30:54;95791.34;;;7.01;99.78
75008;BME280;63554;48.940;12.050;2023-12-22T18:34:57;95800.94;;;6.97;99.88
75008;BME280;63554;48.940;12.050;2023-12-22T18:39:01;95818.47;;;7.23;96.69
75008;BME280;63554;48.940;12.050;2023-12-22T18:43:05;95798.66;;;7.29;96.06
75008;BME280;63554;48.940;12.050;2023-12-22T18:47:07;95798.47;;;7.19;96.33
75008;BME280;63554;48.940;12.050;2023-12-22T18:51:11;95772.38;;;7.19;96.51
75008;BME280;63554;48.940;12.050;2023-12-22T18:55:15;95769.34;;;7.27;95.35
75008;BME280;63554;48.940;12.050;2023-12-22T18:59:19;95789.94;;;7.22;97.46
75008;BME280;63554;48.940;12.050;2023-12-22T19:03:21;95818.09;;;7.19;97.27
75008;BME280;63554;48.940;12.050;2023-12-22T19:07:25;95795.41;;;7.15;98.75
75008;BME280;63554;48.940;12.050;2023-12-22T19:11:31;95787.31;;;7.27;97.70
75008;BME280;63554;48.940;12.050;2023-12-22T19:15:34;95784.09;;;7.13;99.26
75008;BME280;63554;48.940;12.050;2023-12-22T19:19:37;95798.34;;;7.25;98.66
75008;BME280;63554;48.940;12.050;2023-12-22T19:23:40;95799.75;;;7.16;100.00
75008;BME280;63554;48.940;12.050;2023-12-22T19:27:44;95801.50;;;7.22;98.89
75008;BME280;63554;48.940;12.050;2023-12-22T19:31:48;95785.59;;;7.21;99.36
75008;BME280;63554;48.940;12.050;2023-12-22T19:35:50;95796.00;;;7.17;99.45
75008;BME280;63554;48.940;12.050;2023-12-22T19:39:53;95833.56;;;7.12;100.00
75008;BME280;63554;48.940;12.050;2023-12-22T19:43:57;95849.13;;;7.10;99.83
75008;BME280;63554;48.940;12.050;2023-12-22T19:48:00;95859.31;;;7.20;99.29
75008;BME280;63554;48.940;12.050;2023-12-22T19:52:04;95844.91;;;7.14;99.01
75008;BME280;63554;48.940;12.050;2023-12-22T19:56:06;95850.63;;;7.29;97.00
75008;BME280;63554;48.940;12.050;2023-12-22T20:00:11;95876.25;;;7.20;97.74
75008;BME280;63554;48.940;12.050;2023-12-22T20:04:14;95866.66;;;7.12;99.73
75008;BME280;63554;48.940;12.050;2023-12-22T20:08:17;95868.66;;;7.05;100.00
75008;BME280;63554;48.940;12.050;2023-12-22T20:12:20;95886.31;;;6.89;100.00
75008;BME280;63554;48.940;12.050;2023-12-22T20:16:25;95851.91;;;6.68;100.00
75008;BME280;63554;48.940;12.050;2023-12-22T20:20:28;95880.44;;;6.57;100.00
75008;BME280;63554;48.940;12.050;2023-12-22T20:24:31;95894.53;;;6.52;100.00
75008;BME280;63554;48.940;12.050;2023-12-22T20:28:33;95909.59;;;6.42;100.00
75008;BME280;63554;48.940;12.050;2023-12-22T20:32:39;95906.56;;;6.50;100.00
75008;BME280;63554;48.940;12.050;2023-12-22T20:36:42;95873.97;;;6.46;100.00
75008;BME280;63554;48.940;12.050;2023-12-22T20:40:45;95905.88;;;6.54;100.00
75008;BME280;63554;48.940;12.050;2023-12-22T20:44:48;95903.09;;;6.61;100.00
75008;BME280;63554;48.940;12.050;2023-12-22T20:48:52;95900.06;;;6.58;100.00
75008;BME280;63554;48.940;12.050;2023-12-22T20:52:55;95928.44;;;6.53;100.00
75008;BME280;63554;48.940;12.050;2023-12-22T20:56:57;95893.16;;;6.62;100.00
75008;BME280;63554;48.940;12.050;2023-12-22T21:01:00;95927.28;;;6.61;100.00
75008;BME280;63554;48.940;12.050;2023-12-22T21:05:06;95904.16;;;6.72;100.00
75008;BME280;63554;48.940;12.050;2023-12-22T21:09:09;95913.50;;;6.69;100.00
75008;BME280;63554;48.940;12.050;2023-12-22T21:13:12;95907.56;;;6.79;100.00
75008;BME280;63554;48.940;12.050;2023-12-22T21:17:16;95900.09;;;6.81;100.00